Friday, November 21, 2014
17:52 UTC
  |  Log In   |  Register Free
Airport Search:

South Alabama Regional At Bill Benton Field Airport
(K79J)

South Alabama Regional At Bill Benton Field Airport Diagram
No Airport Diagram Available

FAA data valid effective November 13, 2014 - January 08, 2015 (unless otherwise noted).

 
 
 
 
 
 
 
 
 
 
 
 
 
 

Current Aviation Weather for South Alabama Regional At Bill Benton Field Airport (K79J)

The most recent METAR observation for K79J was updated at: 1714
METAR Summary (Translated METAR)
K79J
211656Z AUTO 11008KT 10SM CLR 21/06 A3036 RMK AO2 SLP278 T02110061
K0J4
211658Z AUTO 08007KT 050V120 10SM CLR 19/07 A3037 RMK AO2 SLP281 T01940072 $
(16.5 nm SE from K79J)
KEDN
211655Z AUTO 11005KT 10SM CLR 17/06 A3037 RMK AO2
(25.3 nm SE from K79J)
TAF
No TAF information found within 50 nm of KLOR
  Airport Weather Conditions for K79J

 Current Weather at 79J
70° F
Fair
East winds at 9.2 mph
79J NOAA Radar

Pressure: 30.36 in
Humidity: 38%
Wind: East at 9.2 MPH (8 KT)
Dew Point: 43.0°F
Visibility: 10.00 mi


Airport Weather Forecast for K79J

Translated METAR and TAF for KLOR
Translated METAR for KLOR (1747 UTC 21 November 2014)
found at http://aviationweather.gov/adds/metars/
 
METAR text: KLOR 211653Z AUTO VRB05KT 10SM CLR 19/07 A3036 RMK AO2 SLP279 T01890067 TSNO $
Conditions at: KLOR (LOWE AHP/FT. RUC, AL, US) observed 1653 UTC 21 November 2014
Temperature: 18.9°C (66°F)
Dewpoint: 6.7°C (44°F) [RH = 45%]
Pressure (altimeter): 30.36 inches Hg (1028.2 mb)
[Sea-level pressure: 1027.9 mb]
Winds: variable direction winds at 6 MPH (5 knots; 2.6 m/s)
Visibility: 10 or more miles (16+ km)
Ceiling: at least 12,000 feet AGL
Clouds: sky clear below 12,000 feet AGL
Weather:
SOME DATA ABOVE MAY BE INACCURATE!!!
"$" is an indication the sensor requires maintenance
Translated TAF for KLOR

There is no translated TAF available for this airport

Find All Airport Services Find A Hotel Find A Rental Car Find A Golf Course Find A Restaurant $100 Hamburger



FBO's on the Field
FBO Company Facility Photos Services Transportation Aviation Fuel Prices: Prices include tax
Catering Weather Repair Courtesy Rental Type 100LL JetA JetA+ MOGAS 8087
 
South Alabama Regional Airport

This FBO has not yet been rated
FS:Phillips 66
Last Updated: Nov-12
Login to update fuel prices
SS:
Contact South Alabama Regional AirportMore FBO Information
 
Add another FBO Facility Photos Catering Weather Repair Courtesy Rental Type 100LL JetA JetA+ MOGAS 8087
Services Transportation Aviation Fuel Prices: Prices include tax


model-print
model-print
model-print
model-print